Time;durP1;ratioP1;P1;durP2;ratioP2;P2;SDS_P1;SDS_P2;PMS_P1;PMS_P2;Temp;Humidity;BMP_temperature;BMP_pressure;BME280_temperature;BME280_humidity;BME280_pressure;Samples;Min_cycle;Max_cycle;Signal;HPM_P1;HPM_P2
2023/12/03 00:02:14;;;;;;;28.40;15.07;;;4.20;53.30;;;;;;5018281;28;20056;-48
2023/12/03 00:04:43;;;;;;;28.90;15.10;;;4.20;53.30;;;;;;5016716;28;20414;-45
2023/12/03 00:07:12;;;;;;;27.80;14.70;;;4.20;53.80;;;;;;5021657;28;20060;-44
2023/12/03 00:09:39;;;;;;;25.35;14.80;;;4.20;53.30;;;;;;5026326;28;20048;-46
2023/12/03 00:12:07;;;;;;;27.25;14.93;;;4.20;53.40;;;;;;5018285;28;20058;-47
2023/12/03 00:14:36;;;;;;;28.27;15.45;;;4.20;53.30;;;;;;5020015;28;20046;-46
2023/12/03 00:17:03;;;;;;;30.95;15.27;;;4.20;53.20;;;;;;5018433;28;20090;-43
2023/12/03 00:19:30;;;;;;;28.23;14.57;;;4.30;53.30;;;;;;5019633;28;20053;-44
2023/12/03 00:21:58;;;;;;;29.40;15.40;;;4.20;53.20;;;;;;5026130;28;20439;-44
2023/12/03 00:24:26;;;;;;;29.15;15.27;;;4.20;53.10;;;;;;5018184;28;20053;-48
2023/12/03 00:26:54;;;;;;;28.63;14.70;;;4.20;53.20;;;;;;5026420;28;20053;-47
2023/12/03 00:29:21;;;;;;;27.17;14.80;;;4.30;53.20;;;;;;5021247;28;20073;-36
2023/12/03 00:31:48;;;;;;;27.33;14.13;;;4.20;53.10;;;;;;5025386;28;20049;-36
2023/12/03 00:34:15;;;;;;;27.75;14.40;;;4.30;53.30;;;;;;5024015;28;20072;-36
2023/12/03 00:36:43;;;;;;;28.50;14.98;;;4.30;53.40;;;;;;5020561;28;20053;-36
2023/12/03 00:39:10;;;;;;;28.80;15.60;;;4.30;53.40;;;;;;5020892;28;20053;-35
2023/12/03 00:41:39;;;;;;;29.35;14.82;;;4.30;53.40;;;;;;5016153;28;20418;-35
2023/12/03 00:44:06;;;;;;;27.70;14.85;;;4.30;53.40;;;;;;5016525;28;20058;-36
2023/12/03 00:46:33;;;;;;;25.75;14.02;;;4.20;53.30;;;;;;5013841;28;20053;-36
2023/12/03 00:49:00;;;;;;;25.48;13.90;;;4.30;53.30;;;;;;5020349;28;20046;-37
2023/12/03 00:51:28;;;;;;;26.88;14.40;;;4.30;53.40;;;;;;5020730;28;20520;-37
2023/12/03 00:53:55;;;;;;;29.10;15.05;;;4.30;53.90;;;;;;5025468;28;20061;-35
2023/12/03 00:56:22;;;;;;;23.42;13.27;;;4.30;53.50;;;;;;5013584;28;20050;-36
2023/12/03 00:58:51;;;;;;;32.15;15.48;;;4.30;53.50;;;;;;5022896;28;20057;-35
2023/12/03 01:01:20;;;;;;;27.67;14.73;;;4.30;53.50;;;;;;5018789;28;20213;-37
2023/12/03 01:03:47;;;;;;;28.17;15.00;;;4.30;53.50;;;;;;5018074;28;20402;-35
2023/12/03 01:06:15;;;;;;;27.80;15.25;;;4.30;53.50;;;;;;5018528;28;20490;-35
2023/12/03 01:08:42;;;;;;;25.83;14.52;;;4.30;53.50;;;;;;5025329;28;20054;-36
2023/12/03 01:11:10;;;;;;;26.27;13.32;;;4.30;53.50;;;;;;5023530;28;20513;-36
2023/12/03 01:13:37;;;;;;;27.70;14.60;;;4.30;53.50;;;;;;5025299;28;20052;-38
2023/12/03 01:16:14;;;;;;;26.05;14.00;;;4.30;53.50;;;;;;5020450;28;20509;-35
2023/12/03 01:18:41;;;;;;;27.67;14.57;;;4.30;53.50;;;;;;5016794;28;20054;-36
2023/12/03 01:21:09;;;;;;;25.10;14.02;;;4.30;53.50;;;;;;5021724;28;20080;-35
2023/12/03 01:23:36;;;;;;;26.60;14.45;;;4.30;53.50;;;;;;5030416;28;20053;-36
2023/12/03 01:26:03;;;;;;;25.38;14.25;;;4.30;53.50;;;;;;5020148;28;20417;-36
2023/12/03 01:28:31;;;;;;;28.70;14.57;;;4.30;53.60;;;;;;5026554;28;20050;-35
2023/12/03 01:30:58;;;;;;;27.00;14.45;;;4.30;53.70;;;;;;5025915;28;20486;-35
2023/12/03 01:33:27;;;;;;;26.80;15.02;;;4.30;53.60;;;;;;5018690;28;20068;-37
2023/12/03 01:35:56;;;;;;;28.73;14.75;;;4.30;53.60;;;;;;5024925;28;20057;-36
2023/12/03 01:38:23;;;;;;;28.63;15.65;;;4.30;53.60;;;;;;5029712;28;20045;-44
2023/12/03 01:40:53;;;;;;;26.80;14.43;;;4.30;53.40;;;;;;5026377;28;20056;-47
2023/12/03 01:43:21;;;;;;;26.48;14.52;;;4.30;53.30;;;;;;5025408;28;20494;-44
2023/12/03 01:45:48;;;;;;;29.60;15.60;;;4.30;53.40;;;;;;5021643;28;20808;-44
2023/12/03 01:48:16;;;;;;;29.98;16.17;;;4.30;53.50;;;;;;5024727;28;20054;-47
2023/12/03 01:50:45;;;;;;;26.05;14.82;;;4.30;53.50;;;;;;5020971;28;20061;-45
2023/12/03 01:53:13;;;;;;;31.10;15.55;;;4.20;53.50;;;;;;5029850;28;20052;-45
2023/12/03 01:55:41;;;;;;;28.23;16.10;;;4.20;53.50;;;;;;5019224;28;20052;-45
2023/12/03 01:58:08;;;;;;;29.55;15.38;;;4.20;53.50;;;;;;5021771;28;20049;-46
2023/12/03 02:00:36;;;;;;;29.30;15.20;;;4.20;53.50;;;;;;5018824;28;20050;-47
2023/12/03 02:03:03;;;;;;;30.73;15.55;;;4.20;53.50;;;;;;5016709;28;20096;-47
2023/12/03 02:05:30;;;;;;;26.70;14.88;;;4.20;53.60;;;;;;5025105;28;20528;-47
2023/12/03 02:08:00;;;;;;;28.30;15.23;;;4.20;53.60;;;;;;5018389;28;20049;-45
2023/12/03 02:10:27;;;;;;;28.80;15.52;;;4.10;53.60;;;;;;5023246;28;20065;-44
2023/12/03 02:12:57;;;;;;;30.88;16.13;;;4.20;53.60;;;;;;5021781;28;20053;-46
2023/12/03 02:15:25;;;;;;;28.90;16.00;;;4.10;53.50;;;;;;5022016;28;20054;-44
2023/12/03 02:17:52;;;;;;;29.02;16.38;;;4.10;53.50;;;;;;5016703;28;20053;-46
2023/12/03 02:20:20;;;;;;;29.77;15.80;;;4.10;53.50;;;;;;5026701;28;20051;-46
2023/12/03 02:23:00;;;;;;;32.05;16.15;;;4.10;53.50;;;;;;5022411;28;20041;-43
2023/12/03 02:25:27;;;;;;;28.10;15.57;;;4.10;54.00;;;;;;5023047;28;20061;-47
2023/12/03 02:27:54;;;;;;;28.90;16.70;;;4.10;53.50;;;;;;5020429;28;20502;-45
2023/12/03 02:30:22;;;;;;;32.15;16.77;;;4.10;53.50;;;;;;5023863;28;20495;-45
2023/12/03 02:32:49;;;;;;;28.73;16.83;;;4.10;53.50;;;;;;5015447;28;20057;-47
2023/12/03 02:35:16;;;;;;;29.17;16.52;;;4.10;53.60;;;;;;5022201;28;20045;-41
2023/12/03 02:37:44;;;;;;;32.13;16.48;;;4.10;53.60;;;;;;5019307;28;20648;-44
2023/12/03 02:40:12;;;;;;;31.58;16.98;;;4.10;53.60;;;;;;5023128;28;20045;-42
2023/12/03 02:42:40;;;;;;;35.22;18.08;;;4.10;53.60;;;;;;5019283;28;20056;-46
2023/12/03 02:45:09;;;;;;;38.33;19.05;;;4.10;53.60;;;;;;5022626;28;20053;-46
2023/12/03 02:47:36;;;;;;;34.28;17.50;;;4.10;53.50;;;;;;5017365;28;20057;-46
2023/12/03 02:50:04;;;;;;;30.75;16.42;;;4.10;53.50;;;;;;5024373;28;20121;-35
2023/12/03 02:52:31;;;;;;;30.60;16.52;;;4.00;53.50;;;;;;5025304;28;20049;-37
2023/12/03 02:54:59;;;;;;;30.55;16.55;;;4.00;53.50;;;;;;5022838;28;20065;-36
2023/12/03 02:57:27;;;;;;;29.73;16.08;;;4.00;53.50;;;;;;5026428;28;20417;-38
2023/12/03 02:59:54;;;;;;;30.75;16.70;;;4.00;53.50;;;;;;5019563;28;20049;-38
2023/12/03 03:02:22;;;;;;;30.73;16.95;;;4.00;53.50;;;;;;5019619;28;20053;-36
2023/12/03 03:04:49;;;;;;;36.25;17.80;;;4.00;53.60;;;;;;5017174;28;20433;-36
2023/12/03 03:07:16;;;;;;;28.10;16.02;;;4.00;53.50;;;;;;5015010;28;20046;-38
2023/12/03 03:09:43;;;;;;;29.33;16.08;;;4.00;53.50;;;;;;5014857;28;20493;-37
2023/12/03 03:12:11;;;;;;;30.63;15.98;;;4.00;53.50;;;;;;5018817;28;20402;-36
2023/12/03 03:14:39;;;;;;;30.50;15.93;;;4.00;53.50;;;;;;5021995;28;20060;-35
2023/12/03 03:17:06;;;;;;;29.40;16.15;;;4.00;53.50;;;;;;5022581;28;20050;-36
2023/12/03 03:19:34;;;;;;;28.85;15.80;;;4.00;53.50;;;;;;5014551;28;20071;-36
2023/12/03 03:22:01;;;;;;;30.60;15.48;;;3.90;53.50;;;;;;5015257;28;20061;-36
2023/12/03 03:24:28;;;;;;;29.25;15.48;;;3.90;53.50;;;;;;5017052;28;20496;-37
2023/12/03 03:26:55;;;;;;;25.90;14.63;;;3.90;53.60;;;;;;5017103;28;20057;-36
2023/12/03 03:29:23;;;;;;;31.40;15.20;;;3.90;53.60;;;;;;5017466;28;20059;-36
2023/12/03 03:31:51;;;;;;;27.92;15.00;;;3.90;53.60;;;;;;5023073;28;20509;-36
2023/12/03 03:34:18;;;;;;;31.50;16.23;;;3.90;53.60;;;;;;5017524;28;20589;-38
2023/12/03 03:36:46;;;;;;;28.67;15.02;;;3.90;53.60;;;;;;5024568;28;20056;-38
2023/12/03 03:39:13;;;;;;;26.67;14.40;;;3.90;53.70;;;;;;5027248;28;20060;-37
2023/12/03 03:41:40;;;;;;;29.65;15.65;;;3.90;53.70;;;;;;5011021;28;20049;-36
2023/12/03 03:44:07;;;;;;;34.15;16.27;;;3.90;53.80;;;;;;5024455;28;20060;-37
2023/12/03 03:46:35;;;;;;;31.17;15.75;;;3.90;53.80;;;;;;5025248;28;20046;-36
2023/12/03 03:49:03;;;;;;;31.08;16.55;;;3.90;53.90;;;;;;5024229;28;20068;-36
2023/12/03 03:51:30;;;;;;;31.20;15.98;;;3.90;53.80;;;;;;5025149;28;20076;-36
2023/12/03 03:53:58;;;;;;;29.10;16.88;;;3.90;53.80;;;;;;5023549;28;20065;-36
2023/12/03 03:56:25;;;;;;;31.52;17.17;;;3.90;53.90;;;;;;5021537;28;20402;-37
2023/12/03 03:58:53;;;;;;;33.05;17.08;;;3.80;53.70;;;;;;5024302;28;20052;-45
2023/12/03 04:01:20;;;;;;;30.77;16.67;;;3.80;53.70;;;;;;5020133;28;20413;-43
2023/12/03 04:03:47;;;;;;;31.75;17.30;;;3.80;53.70;;;;;;5023654;28;20297;-45
2023/12/03 04:06:16;;;;;;;35.83;16.35;;;3.80;53.70;;;;;;5026385;28;20050;-47
2023/12/03 04:08:43;;;;;;;31.65;17.15;;;3.80;53.70;;;;;;5016752;28;20068;-45
2023/12/03 04:11:10;;;;;;;31.50;16.15;;;3.80;53.70;;;;;;5019892;28;20052;-45
2023/12/03 04:13:38;;;;;;;31.95;16.75;;;3.80;53.70;;;;;;5020798;28;20046;-45
2023/12/03 04:16:06;;;;;;;30.70;16.20;;;3.80;53.70;;;;;;5019042;28;20057;-47
2023/12/03 04:18:33;;;;;;;32.58;16.35;;;3.80;53.80;;;;;;5030190;28;20049;-47
2023/12/03 04:21:00;;;;;;;31.92;17.13;;;3.80;53.80;;;;;;5021612;28;20054;-46
2023/12/03 04:23:29;;;;;;;31.08;16.95;;;3.80;53.80;;;;;;5023405;28;20060;-45
2023/12/03 04:25:56;;;;;;;31.95;15.98;;;3.80;53.80;;;;;;5021635;28;20092;-45
2023/12/03 04:28:24;;;;;;;34.13;17.23;;;3.80;53.90;;;;;;5023805;28;20057;-45
2023/12/03 04:30:51;;;;;;;33.58;17.83;;;3.80;53.90;;;;;;5022528;28;20221;-45
2023/12/03 04:33:18;;;;;;;34.15;17.48;;;3.80;53.80;;;;;;5019518;28;20057;-43
2023/12/03 04:35:45;;;;;;;29.95;17.30;;;3.80;53.90;;;;;;5012972;28;20076;-46
2023/12/03 04:38:12;;;;;;;33.38;16.85;;;3.80;53.90;;;;;;5029982;28;20053;-48
2023/12/03 04:40:41;;;;;;;27.70;14.98;;;3.80;53.90;;;;;;5023127;28;20494;-45
2023/12/03 04:43:08;;;;;;;29.70;15.30;;;3.80;53.80;;;;;;5030847;28;20049;-47
2023/12/03 04:45:35;;;;;;;32.40;16.58;;;3.90;53.90;;;;;;5022550;28;20057;-46
2023/12/03 04:48:04;;;;;;;27.75;14.35;;;3.80;53.70;;;;;;5023963;28;20394;-46
2023/12/03 04:50:31;;;;;;;31.98;16.45;;;3.80;53.70;;;;;;5022694;28;20057;-49
2023/12/03 04:52:58;;;;;;;27.40;14.93;;;3.80;53.70;;;;;;5028099;28;20512;-46
2023/12/03 04:55:25;;;;;;;31.10;15.02;;;3.80;53.70;;;;;;5022506;28;20053;-46
2023/12/03 04:57:54;;;;;;;24.45;13.13;;;3.90;53.70;;;;;;5023868;28;20053;-49
2023/12/03 05:00:21;;;;;;;29.55;14.43;;;3.80;53.50;;;;;;5019840;28;20406;-45
2023/12/03 05:02:48;;;;;;;26.60;13.43;;;3.80;53.50;;;;;;5021460;28;20088;-45
2023/12/03 05:05:16;;;;;;;27.13;13.55;;;3.80;53.60;;;;;;5023980;28;20061;-46
2023/12/03 05:07:43;;;;;;;26.50;13.05;;;3.80;53.60;;;;;;5014333;28;20053;-43
2023/12/03 05:10:10;;;;;;;26.23;13.25;;;3.80;53.60;;;;;;5022985;28;20046;-36
2023/12/03 05:12:37;;;;;;;26.70;12.68;;;3.80;53.70;;;;;;5025258;28;20490;-36
2023/12/03 05:15:07;;;;;;;24.77;13.35;;;3.80;53.80;;;;;;5020749;28;20053;-36
2023/12/03 05:17:34;;;;;;;25.23;12.45;;;3.80;53.80;;;;;;5017863;28;20060;-38
2023/12/03 05:20:01;;;;;;;27.63;14.55;;;3.80;53.70;;;;;;5019432;28;20080;-35
2023/12/03 05:22:28;;;;;;;27.45;13.55;;;3.80;53.70;;;;;;5025011;28;20049;-36
2023/12/03 05:24:56;;;;;;;28.00;14.15;;;3.80;53.70;;;;;;5021159;28;20433;-36
2023/12/03 05:27:23;;;;;;;30.65;14.23;;;3.80;53.60;;;;;;5020651;28;20494;-37
2023/12/03 05:29:50;;;;;;;29.60;15.10;;;3.70;53.50;;;;;;5026707;28;20490;-37
2023/12/03 05:32:19;;;;;;;29.48;14.63;;;3.70;53.50;;;;;;5022105;28;20129;-38
2023/12/03 05:34:47;;;;;;;27.92;14.13;;;3.70;53.50;;;;;;5019299;28;20866;-38
2023/12/03 05:37:14;;;;;;;28.42;14.60;;;3.70;53.50;;;;;;5021901;28;20049;-37
2023/12/03 05:39:42;;;;;;;27.60;13.75;;;3.70;53.40;;;;;;5024787;28;20061;-36
2023/12/03 05:42:09;;;;;;;29.80;14.63;;;3.70;53.50;;;;;;5021900;28;20058;-37
2023/12/03 05:44:37;;;;;;;31.27;14.20;;;3.70;53.40;;;;;;5019443;28;20049;-35
2023/12/03 05:47:04;;;;;;;29.25;13.82;;;3.60;53.40;;;;;;5023494;28;20050;-36
2023/12/03 05:49:33;;;;;;;31.10;15.00;;;3.60;53.40;;;;;;5022338;28;20081;-36
2023/12/03 05:52:00;;;;;;;27.00;14.13;;;3.60;53.40;;;;;;5020689;28;20052;-36
2023/12/03 05:54:28;;;;;;;27.10;14.88;;;3.60;53.40;;;;;;5024760;28;20050;-36
2023/12/03 05:56:55;;;;;;;28.85;14.77;;;3.60;53.40;;;;;;5021537;28;21338;-36
2023/12/03 05:59:23;;;;;;;29.52;14.98;;;3.60;53.40;;;;;;5020547;28;20053;-37
2023/12/03 06:01:51;;;;;;;26.73;13.55;;;3.60;53.50;;;;;;5017839;28;20905;-36
2023/12/03 06:04:19;;;;;;;28.73;14.63;;;3.60;53.50;;;;;;5020704;28;20064;-37
2023/12/03 06:06:47;;;;;;;26.55;14.20;;;3.60;53.60;;;;;;5020573;28;20065;-41
2023/12/03 06:09:15;;;;;;;30.10;14.18;;;3.60;53.60;;;;;;5024146;28;20052;-37
2023/12/03 06:11:42;;;;;;;28.17;14.38;;;3.60;53.70;;;;;;5018849;28;20060;-37
2023/12/03 06:14:09;;;;;;;27.33;13.80;;;3.60;53.70;;;;;;5023963;28;20053;-37
2023/12/03 06:16:37;;;;;;;25.52;13.52;;;3.60;53.70;;;;;;5019131;28;20053;-36
2023/12/03 06:19:04;;;;;;;26.02;14.25;;;3.60;53.80;;;;;;5024048;28;20409;-36
2023/12/03 06:21:31;;;;;;;26.35;13.50;;;3.60;54.30;;;;;;5024748;28;20510;-36
2023/12/03 06:24:00;;;;;;;26.65;14.27;;;3.60;53.90;;;;;;5019943;28;20048;-36
2023/12/03 06:26:27;;;;;;;24.42;13.30;;;3.60;53.90;;;;;;5020203;28;20823;-37
2023/12/03 06:28:54;;;;;;;25.75;13.65;;;3.70;54.00;;;;;;5016993;28;20120;-36
2023/12/03 06:31:22;;;;;;;31.27;13.27;;;3.70;53.90;;;;;;5022137;28;20053;-38
2023/12/03 06:33:49;;;;;;;28.45;14.00;;;3.70;53.90;;;;;;5018917;28;20057;-37
2023/12/03 06:36:16;;;;;;;37.67;18.30;;;3.70;53.90;;;;;;5020221;28;20056;-41
2023/12/03 06:38:43;;;;;;;70.15;29.92;;;3.80;53.90;;;;;;5020732;28;20073;-37
2023/12/03 06:41:12;;;;;;;39.15;18.75;;;3.80;53.90;;;;;;5017705;28;20057;-37
2023/12/03 06:43:39;;;;;;;29.95;15.73;;;3.80;53.80;;;;;;5020530;28;20525;-36
2023/12/03 06:46:07;;;;;;;30.08;15.88;;;3.80;53.70;;;;;;5019580;28;20060;-36
2023/12/03 06:48:34;;;;;;;33.75;15.98;;;3.80;53.70;;;;;;5020909;28;20053;-36
2023/12/03 06:51:01;;;;;;;32.47;16.23;;;3.80;54.10;;;;;;5021442;28;20072;-36
2023/12/03 06:53:29;;;;;;;33.33;16.92;;;3.80;53.60;;;;;;5022451;28;20049;-37
2023/12/03 06:55:56;;;;;;;32.28;17.27;;;3.80;53.60;;;;;;5020891;28;20527;-36
2023/12/03 06:58:24;;;;;;;33.95;17.48;;;3.80;53.60;;;;;;5021368;28;20065;-36
2023/12/03 07:00:52;;;;;;;33.22;16.63;;;3.80;53.50;;;;;;5016890;28;20065;-37
2023/12/03 07:03:19;;;;;;;34.67;17.17;;;3.80;53.50;;;;;;5022861;28;20052;-37
2023/12/03 07:05:46;;;;;;;31.73;16.42;;;3.80;53.50;;;;;;5019919;28;20079;-39
2023/12/03 07:08:13;;;;;;;32.40;16.58;;;3.80;53.50;;;;;;5023453;28;20525;-36
2023/12/03 07:10:41;;;;;;;34.90;17.90;;;3.80;53.60;;;;;;5018494;28;20057;-36
2023/12/03 07:13:08;;;;;;;34.88;18.80;;;3.70;53.60;;;;;;5020367;28;20054;-36
2023/12/03 07:15:36;;;;;;;34.40;17.23;;;3.70;53.60;;;;;;5017596;28;20057;-35
2023/12/03 07:18:04;;;;;;;32.60;16.90;;;3.70;53.50;;;;;;5017518;28;20057;-37
2023/12/03 07:20:31;;;;;;;34.03;17.48;;;3.70;53.60;;;;;;5023504;28;20060;-36
2023/12/03 07:22:58;;;;;;;35.75;18.17;;;3.70;53.60;;;;;;5015723;28;20046;-36
2023/12/03 07:25:27;;;;;;;36.83;17.67;;;3.70;53.50;;;;;;5018734;28;20060;-38
2023/12/03 07:27:55;;;;;;;35.38;17.15;;;3.70;53.50;;;;;;5023658;28;20068;-37
2023/12/03 07:30:22;;;;;;;33.22;17.75;;;3.70;53.60;;;;;;5022014;28;20053;-43
2023/12/03 07:32:51;;;;;;;32.05;16.83;;;3.70;53.70;;;;;;5022548;28;20508;-45
2023/12/03 07:35:18;;;;;;;32.13;16.90;;;3.70;53.70;;;;;;5017251;28;20049;-44
2023/12/03 07:37:45;;;;;;;33.80;17.08;;;3.70;53.70;;;;;;5020259;28;20045;-49
2023/12/03 07:40:13;;;;;;;38.00;19.80;;;3.70;53.70;;;;;;5016957;28;20045;-49
2023/12/03 07:42:40;;;;;;;35.90;17.63;;;3.70;53.70;;;;;;5020310;28;20060;-47
2023/12/03 07:45:09;;;;;;;37.10;18.42;;;3.70;53.80;;;;;;5010556;28;20049;-44
2023/12/03 07:47:36;;;;;;;38.13;19.98;;;3.70;53.70;;;;;;5023731;28;20061;-44
2023/12/03 07:50:05;;;;;;;38.25;18.85;;;3.70;53.70;;;;;;5020916;28;20054;-47
2023/12/03 07:52:33;;;;;;;36.92;18.88;;;3.70;53.70;;;;;;5020627;28;20045;-46
2023/12/03 07:55:00;;;;;;;38.00;18.73;;;3.70;53.70;;;;;;5021762;28;20060;-48
2023/12/03 07:57:27;;;;;;;41.72;19.80;;;3.70;53.70;;;;;;5024142;28;20120;-45
2023/12/03 07:59:55;;;;;;;37.90;18.60;;;3.70;53.70;;;;;;5025357;28;20057;-46
2023/12/03 08:02:22;;;;;;;37.53;18.33;;;3.70;53.70;;;;;;5014027;28;20050;-43
2023/12/03 08:04:49;;;;;;;35.13;18.40;;;3.70;53.70;;;;;;5010292;28;20045;-45
2023/12/03 08:07:17;;;;;;;37.10;18.30;;;3.70;53.70;;;;;;5021495;28;20504;-42
2023/12/03 08:09:45;;;;;;;35.58;17.23;;;3.70;53.60;;;;;;5029661;28;20057;-46
2023/12/03 08:12:12;;;;;;;37.42;18.33;;;3.70;53.70;;;;;;5024771;28;20052;-47
2023/12/03 08:14:39;;;;;;;39.03;19.52;;;3.70;53.70;;;;;;5022177;28;20060;-45
2023/12/03 08:17:11;;;;;;;40.80;17.27;;;3.80;53.70;;;;;;5018865;28;20532;-46
2023/12/03 08:19:39;;;;;;;35.85;17.88;;;3.80;53.60;;;;;;5021403;28;20057;-44
2023/12/03 08:22:06;;;;;;;39.05;18.02;;;3.80;53.70;;;;;;5013931;28;20057;-45
2023/12/03 08:24:35;;;;;;;39.60;19.38;;;3.80;53.70;;;;;;5011206;28;20057;-45
2023/12/03 08:27:03;;;;;;;39.33;18.02;;;3.80;53.70;;;;;;5022244;28;20049;-46
2023/12/03 08:29:30;;;;;;;35.95;18.33;;;3.80;53.60;;;;;;5016145;28;20062;-48
2023/12/03 08:31:57;;;;;;;34.55;18.00;;;3.80;53.60;;;;;;5021421;28;20394;-46
2023/12/03 08:34:26;;;;;;;33.30;17.70;;;3.80;53.50;;;;;;5020679;28;20045;-45
2023/12/03 08:36:52;;;;;;;34.75;17.10;;;3.80;53.50;;;;;;5021907;28;20049;-50
2023/12/03 08:39:19;;;;;;;34.72;17.30;;;3.80;53.40;;;;;;5015121;28;20391;-37
2023/12/03 08:41:48;;;;;;;34.67;17.52;;;3.80;53.40;;;;;;5021032;28;20395;-36
2023/12/03 08:44:15;;;;;;;35.45;16.67;;;3.70;53.40;;;;;;5020102;28;20049;-40
2023/12/03 08:46:42;;;;;;;32.83;17.35;;;3.70;53.50;;;;;;5015889;28;21623;-39
2023/12/03 08:49:09;;;;;;;36.63;18.30;;;3.70;53.50;;;;;;5014539;28;20077;-36
2023/12/03 08:51:38;;;;;;;37.97;17.00;;;3.70;53.50;;;;;;5019931;28;20410;-38
2023/12/03 08:54:05;;;;;;;34.70;17.83;;;3.70;53.60;;;;;;5019410;28;20051;-36
2023/12/03 08:56:32;;;;;;;37.25;16.75;;;3.70;53.60;;;;;;5016658;28;20057;-37
2023/12/03 08:59:02;;;;;;;36.88;17.85;;;3.70;53.60;;;;;;5013937;28;20049;-36
2023/12/03 09:01:29;;;;;;;38.92;17.83;;;3.70;53.70;;;;;;5020146;28;20058;-39
2023/12/03 09:03:58;;;;;;;46.13;21.15;;;3.70;53.70;;;;;;5021611;28;20497;-38
2023/12/03 09:06:25;;;;;;;36.10;17.00;;;3.70;53.70;;;;;;5018108;28;20057;-36
2023/12/03 09:08:52;;;;;;;35.17;16.92;;;3.70;53.70;;;;;;5015383;28;20514;-36
2023/12/03 09:11:19;;;;;;;35.47;16.40;;;3.70;53.80;;;;;;5015595;28;20133;-38
2023/12/03 09:13:46;;;;;;;37.72;17.70;;;3.70;53.90;;;;;;5015616;28;20054;-39
2023/12/03 09:16:15;;;;;;;36.35;16.55;;;3.70;53.90;;;;;;5016114;28;20046;-37
2023/12/03 09:18:42;;;;;;;42.92;16.00;;;3.70;53.80;;;;;;5015894;28;20433;-37
2023/12/03 09:21:11;;;;;;;36.20;16.92;;;3.70;53.80;;;;;;5017253;28;20100;-37
2023/12/03 09:23:38;;;;;;;36.85;16.85;;;3.70;53.80;;;;;;5016321;28;20060;-37
2023/12/03 09:26:06;;;;;;;30.73;15.50;;;3.70;53.80;;;;;;5018706;28;20062;-36
2023/12/03 09:28:34;;;;;;;29.65;14.55;;;3.70;53.80;;;;;;5016145;28;20057;-39
2023/12/03 09:31:02;;;;;;;31.52;15.77;;;3.70;53.90;;;;;;5022240;28;20068;-39
2023/12/03 09:33:31;;;;;;;30.80;15.95;;;3.70;53.90;;;;;;5024203;28;20487;-38
2023/12/03 09:35:58;;;;;;;32.47;15.18;;;3.70;53.90;;;;;;5022682;28;20504;-37
2023/12/03 09:38:25;;;;;;;30.73;14.73;;;3.80;54.00;;;;;;5024244;28;20054;-36
2023/12/03 09:40:55;;;;;;;27.10;13.73;;;3.70;54.00;;;;;;5018548;28;20133;-38
2023/12/03 09:43:25;;;;;;;32.60;16.00;;;3.80;54.10;;;;;;5020925;28;20064;-38
2023/12/03 09:45:56;;;;;;;31.90;15.10;;;3.80;54.10;;;;;;5014840;28;20792;-36
2023/12/03 09:48:25;;;;;;;30.42;14.10;;;3.80;53.90;;;;;;5020059;28;20057;-36
2023/12/03 09:50:55;;;;;;;29.08;14.60;;;3.80;53.90;;;;;;5020615;28;20060;-48
2023/12/03 09:53:26;;;;;;;28.23;14.27;;;3.80;53.80;;;;;;5018201;28;20088;-47
2023/12/03 09:55:54;;;;;;;26.90;13.05;;;3.80;53.80;;;;;;5021982;28;20057;-44
2023/12/03 09:58:22;;;;;;;27.85;14.00;;;3.90;53.90;;;;;;5022196;28;20053;-43
2023/12/03 10:00:49;;;;;;;28.42;14.13;;;3.90;54.00;;;;;;5021242;28;20056;-47
2023/12/03 10:03:16;;;;;;;30.02;14.43;;;3.90;54.10;;;;;;5019679;28;20053;-46
2023/12/03 10:05:46;;;;;;;31.40;14.77;;;3.90;54.20;;;;;;5018906;28;20053;-42
2023/12/03 10:08:14;;;;;;;27.05;13.38;;;3.90;54.10;;;;;;5021223;28;20417;-44
2023/12/03 10:10:44;;;;;;;37.60;15.15;;;4.00;54.20;;;;;;5021744;28;20049;-47
2023/12/03 10:13:13;;;;;;;29.20;13.77;;;4.00;54.20;;;;;;5024435;28;20045;-47
2023/12/03 10:15:40;;;;;;;31.55;15.18;;;4.00;54.20;;;;;;5018422;28;20068;-43
2023/12/03 10:18:08;;;;;;;29.38;13.88;;;4.10;54.30;;;;;;5018095;28;20438;-47
2023/12/03 10:20:36;;;;;;;28.27;13.73;;;4.10;54.20;;;;;;5015038;28;20054;-44
2023/12/03 10:23:04;;;;;;;29.27;14.07;;;4.10;54.30;;;;;;5024359;28;20060;-47
2023/12/03 10:25:34;;;;;;;28.80;14.38;;;4.20;54.30;;;;;;5018076;28;20070;-48
2023/12/03 10:28:03;;;;;;;30.30;14.43;;;4.20;54.30;;;;;;5026481;28;20116;-47
2023/12/03 10:30:31;;;;;;;30.05;15.30;;;4.20;54.20;;;;;;5017978;28;20061;-45
2023/12/03 10:32:59;;;;;;;28.85;14.35;;;4.30;54.20;;;;;;5025332;28;20294;-46
2023/12/03 10:35:28;;;;;;;32.13;14.75;;;4.30;54.20;;;;;;5023688;28;20069;-44
2023/12/03 10:37:55;;;;;;;29.08;13.77;;;4.40;54.20;;;;;;5024137;28;20050;-43
2023/12/03 10:40:23;;;;;;;29.38;13.75;;;4.40;54.10;;;;;;5019939;28;20521;-48
2023/12/03 10:42:51;;;;;;;33.33;16.70;;;4.40;54.20;;;;;;5024878;28;20045;-49
2023/12/03 10:45:19;;;;;;;41.65;19.70;;;4.50;54.20;;;;;;5023907;28;20504;-42
2023/12/03 10:47:47;;;;;;;32.72;16.27;;;4.50;54.20;;;;;;5019872;28;20049;-49
2023/12/03 10:50:14;;;;;;;31.55;15.35;;;4.50;54.20;;;;;;5027447;28;20064;-49
2023/12/03 10:52:42;;;;;;;33.25;14.95;;;4.60;54.20;;;;;;5023600;28;20061;-47
2023/12/03 10:55:10;;;;;;;37.08;16.40;;;4.60;54.20;;;;;;5019682;28;20049;-48
2023/12/03 10:57:46;;;;;;;31.90;15.95;;;4.70;54.20;;;;;;5016080;28;20064;-48
2023/12/03 11:00:18;;;;;;;35.83;16.90;;;4.70;54.10;;;;;;5016801;28;20057;-47
2023/12/03 11:02:48;;;;;;;34.10;15.48;;;4.70;54.10;;;;;;5021091;28;20054;-43
2023/12/03 11:05:24;;;;;;;33.75;16.35;;;4.80;54.20;;;;;;5019435;28;20064;-46
2023/12/03 11:07:52;;;;;;;31.40;15.15;;;4.90;54.20;;;;;;5018786;28;20414;-43
2023/12/03 11:10:19;;;;;;;40.35;17.10;;;4.90;54.20;;;;;;5020763;28;20054;-47
2023/12/03 11:12:48;;;;;;;33.55;15.52;;;4.90;54.10;;;;;;5024000;28;20060;-49
2023/12/03 11:15:18;;;;;;;51.17;22.75;;;5.00;54.60;;;;;;5023051;28;20052;-50
2023/12/03 11:17:47;;;;;;;51.03;23.00;;;5.00;54.00;;;;;;5016629;28;20513;-46
2023/12/03 11:20:18;;;;;;;48.67;20.40;;;5.00;54.00;;;;;;5020968;28;20061;-47
2023/12/03 11:23:05;;;;;;;40.08;20.73;;;5.10;54.00;;;;;;5022506;28;20053;-48
2023/12/03 11:25:35;;;;;;;36.38;16.00;;;5.10;53.80;;;;;;5029655;28;20045;-44
2023/12/03 11:28:02;;;;;;;35.33;17.02;;;5.20;53.80;;;;;;5020437;28;20652;-48
2023/12/03 11:30:39;;;;;;;33.20;15.60;;;5.20;53.80;;;;;;5024463;28;20053;-44
2023/12/03 11:33:08;;;;;;;26.90;13.93;;;5.20;53.60;;;;;;5020299;28;20045;-46
2023/12/03 11:35:36;;;;;;;31.02;15.00;;;5.30;53.70;;;;;;5018609;28;20050;-48
2023/12/03 11:38:03;;;;;;;29.30;14.38;;;5.30;53.50;;;;;;5022933;28;20565;-45
2023/12/03 11:40:34;;;;;;;30.70;14.40;;;5.30;53.40;;;;;;5022524;28;20734;-48
2023/12/03 11:43:05;;;;;;;33.63;16.00;;;5.40;53.40;;;;;;5029041;28;20064;-50
2023/12/03 11:45:33;;;;;;;33.03;15.82;;;5.40;53.40;;;;;;5017172;28;20061;-44
2023/12/03 11:48:09;;;;;;;32.17;16.58;;;5.40;53.30;;;;;;5019063;28;20072;-47
2023/12/03 11:50:41;;;;;;;35.22;16.50;;;5.40;53.10;;;;;;5021168;28;20064;-48
2023/12/03 11:53:11;;;;;;;30.55;15.25;;;5.50;53.20;;;;;;5019054;28;20054;-49
2023/12/03 11:55:41;;;;;;;32.80;15.90;;;5.40;53.00;;;;;;5015106;28;20049;-47
2023/12/03 11:58:09;;;;;;;37.97;17.27;;;5.50;53.00;;;;;;5024779;28;20501;-46
2023/12/03 12:00:38;;;;;;;37.25;18.30;;;5.50;52.80;;;;;;5017297;28;20050;-46
2023/12/03 12:03:07;;;;;;;37.40;17.60;;;5.50;52.80;;;;;;5019132;28;20049;-49
2023/12/03 12:05:43;;;;;;;35.10;17.50;;;5.40;52.70;;;;;;5018905;28;20056;-49
2023/12/03 12:08:10;;;;;;;43.90;18.95;;;5.40;52.70;;;;;;5020818;28;20052;-42
2023/12/03 12:10:38;;;;;;;44.33;20.42;;;5.50;52.80;;;;;;5021840;28;20053;-38
2023/12/03 12:13:06;;;;;;;44.67;19.83;;;5.50;52.80;;;;;;5021089;28;20061;-39
2023/12/03 12:15:33;;;;;;;46.78;21.08;;;5.40;52.50;;;;;;5018224;28;20493;-38
2023/12/03 12:18:00;;;;;;;45.70;21.10;;;5.40;52.50;;;;;;5017325;28;20061;-37
2023/12/03 12:20:32;;;;;;;44.22;22.08;;;5.40;52.40;;;;;;5022063;28;20558;-39
2023/12/03 12:22:59;;;;;;;41.15;20.17;;;5.40;52.30;;;;;;5017449;28;20053;-38
2023/12/03 12:25:27;;;;;;;43.05;23.08;;;5.40;52.30;;;;;;5015927;28;20065;-38
2023/12/03 12:27:55;;;;;;;38.03;20.20;;;5.40;52.30;;;;;;5016940;28;20064;-37
2023/12/03 12:30:25;;;;;;;43.80;20.05;;;5.40;52.40;;;;;;5016920;28;20050;-39
2023/12/03 12:32:52;;;;;;;43.58;21.15;;;5.40;52.40;;;;;;5014837;28;20706;-40
2023/12/03 12:35:22;;;;;;;45.20;21.73;;;5.40;52.50;;;;;;5015326;28;20061;-40
2023/12/03 12:38:00;;;;;;;41.58;21.75;;;5.40;52.50;;;;;;5018236;28;20056;-38
2023/12/03 12:40:28;;;;;;;45.92;22.45;;;5.40;52.40;;;;;;5016107;28;20065;-38